Time;durP1;ratioP1;P1;durP2;ratioP2;P2;SDS_P1;SDS_P2;PMS_P1;PMS_P2;Temp;Humidity;BMP_temperature;BMP_pressure;BME280_temperature;BME280_humidity;BME280_pressure;Samples;Min_cycle;Max_cycle;Signal;HPM_P1;HPM_P2
2023/07/23 00:00:08;;;;;;;5.85;4.55;;;19.60;99.90;;;;;;2091144;28;20257;-70
2023/07/23 00:01:08;;;;;;;5.50;4.28;;;19.60;99.90;;;;;;2091707;28;20044;-70
2023/07/23 00:02:09;;;;;;;6.80;4.10;;;19.60;99.90;;;;;;2092207;28;20028;-70
2023/07/23 00:03:09;;;;;;;5.47;3.78;;;19.60;99.90;;;;;;2090536;28;20503;-70
2023/07/23 00:04:10;;;;;;;6.05;4.55;;;19.50;99.90;;;;;;2090334;28;20036;-70
2023/07/23 00:05:10;;;;;;;4.95;3.90;;;19.50;99.90;;;;;;2091468;28;20455;-70
2023/07/23 00:06:11;;;;;;;5.90;4.30;;;19.50;99.90;;;;;;2091420;28;20047;-70
2023/07/23 00:07:12;;;;;;;6.63;4.22;;;19.50;99.90;;;;;;2090585;28;20059;-70
2023/07/23 00:08:13;;;;;;;4.65;3.72;;;19.50;99.90;;;;;;2090175;28;20514;-70
2023/07/23 00:09:14;;;;;;;4.32;3.92;;;19.50;99.90;;;;;;2091616;28;20029;-70
2023/07/23 00:10:14;;;;;;;5.95;3.47;;;19.50;99.90;;;;;;2090006;28;20033;-70
2023/07/23 00:11:15;;;;;;;5.93;3.80;;;19.50;99.90;;;;;;2091398;28;20032;-70
2023/07/23 00:12:15;;;;;;;5.28;4.40;;;19.40;99.90;;;;;;2090728;28;20059;-70
2023/07/23 00:13:16;;;;;;;6.60;3.65;;;19.40;99.90;;;;;;2090753;28;20021;-70
2023/07/23 00:14:16;;;;;;;5.65;3.72;;;19.40;99.90;;;;;;2092657;28;20017;-70
2023/07/23 00:15:17;;;;;;;5.47;3.60;;;19.40;99.90;;;;;;2090761;28;20033;-70
2023/07/23 00:16:18;;;;;;;4.75;4.00;;;19.40;99.90;;;;;;2091998;28;20028;-70
2023/07/23 00:17:19;;;;;;;5.40;3.63;;;19.30;99.90;;;;;;2087627;28;20025;-70
2023/07/23 00:18:19;;;;;;;7.35;4.25;;;19.30;99.90;;;;;;2090943;28;20389;-70
2023/07/23 00:19:20;;;;;;;6.05;3.97;;;19.30;99.90;;;;;;2090410;28;20052;-70
2023/07/23 00:20:20;;;;;;;4.45;3.80;;;19.30;99.90;;;;;;2089296;28;20025;-70
2023/07/23 00:21:21;;;;;;;4.55;3.75;;;19.30;99.90;;;;;;2091319;28;20052;-70
2023/07/23 00:22:21;;;;;;;5.30;3.80;;;19.30;99.90;;;;;;2090835;28;20025;-70
2023/07/23 00:23:22;;;;;;;4.90;4.10;;;19.30;99.90;;;;;;2091395;28;20024;-70
2023/07/23 00:24:22;;;;;;;4.25;3.85;;;19.30;99.90;;;;;;2091617;28;20043;-70
2023/07/23 00:25:23;;;;;;;4.50;3.65;;;19.20;99.90;;;;;;2092632;28;20021;-70
2023/07/23 00:26:24;;;;;;;7.53;3.75;;;19.20;99.90;;;;;;2092818;28;20031;-70
2023/07/23 00:27:25;;;;;;;4.30;3.60;;;19.20;99.90;;;;;;2090235;28;20059;-70
2023/07/23 00:28:26;;;;;;;4.25;3.50;;;19.20;99.90;;;;;;2091745;28;20074;-70
2023/07/23 00:29:26;;;;;;;5.50;4.18;;;19.20;99.90;;;;;;2090964;28;20047;-70
2023/07/23 00:30:27;;;;;;;6.10;3.63;;;19.20;99.90;;;;;;2090232;28;20025;-70
2023/07/23 00:31:27;;;;;;;4.57;3.65;;;19.20;99.90;;;;;;2091552;28;20021;-70
2023/07/23 00:32:28;;;;;;;6.28;3.58;;;19.10;99.90;;;;;;2092195;28;20021;-70
2023/07/23 00:33:28;;;;;;;5.40;3.78;;;19.10;99.90;;;;;;2090235;28;20029;-70
2023/07/23 00:34:29;;;;;;;4.68;3.95;;;19.10;99.90;;;;;;2091047;28;20029;-70
2023/07/23 00:35:29;;;;;;;4.70;3.65;;;19.10;99.90;;;;;;2092469;28;20020;-70
2023/07/23 00:36:30;;;;;;;4.30;3.90;;;19.10;99.90;;;;;;2091394;28;20481;-70
2023/07/23 00:37:31;;;;;;;7.32;4.15;;;19.10;99.90;;;;;;2092421;28;20017;-70
2023/07/23 00:38:32;;;;;;;5.22;3.75;;;19.10;99.90;;;;;;2091736;28;20021;-70
2023/07/23 00:39:32;;;;;;;4.90;3.70;;;19.00;99.90;;;;;;2090760;28;20119;-70
2023/07/23 00:40:33;;;;;;;5.43;3.00;;;19.00;99.90;;;;;;2091221;28;20078;-70
2023/07/23 00:41:33;;;;;;;3.95;3.50;;;19.00;99.90;;;;;;2089689;28;20095;-70
2023/07/23 00:42:34;;;;;;;5.85;3.47;;;19.00;99.90;;;;;;2091188;28;20136;-70
2023/07/23 00:43:35;;;;;;;4.85;4.18;;;19.00;99.90;;;;;;2090718;28;20017;-70
2023/07/23 00:44:35;;;;;;;6.53;3.35;;;19.00;99.90;;;;;;2090192;28;20048;-70
2023/07/23 00:45:36;;;;;;;6.00;3.47;;;18.90;99.90;;;;;;2093049;28;20056;-70
2023/07/23 00:46:36;;;;;;;4.15;3.53;;;18.90;99.90;;;;;;2090558;28;20021;-70
2023/07/23 00:47:37;;;;;;;3.58;3.20;;;18.90;99.90;;;;;;2092490;28;20017;-70
2023/07/23 00:48:38;;;;;;;7.05;3.50;;;18.90;99.90;;;;;;2093636;28;20039;-70
2023/07/23 00:49:38;;;;;;;4.05;3.45;;;18.90;99.90;;;;;;2090542;28;20092;-70
2023/07/23 00:50:39;;;;;;;5.95;3.38;;;18.90;99.90;;;;;;2091020;28;20070;-70
2023/07/23 00:51:40;;;;;;;5.38;3.88;;;18.90;99.90;;;;;;2090528;28;20081;-70
2023/07/23 00:52:42;;;;;;;6.78;3.80;;;18.90;99.90;;;;;;2092169;28;20119;-70
2023/07/23 00:53:44;;;;;;;4.97;3.30;;;18.90;99.90;;;;;;2092814;28;20028;-70
2023/07/23 00:54:45;;;;;;;4.95;3.42;;;18.90;99.90;;;;;;2094473;28;20496;-70
2023/07/23 00:55:46;;;;;;;4.60;3.13;;;18.90;99.90;;;;;;2093293;28;20675;-70
2023/07/23 00:56:47;;;;;;;4.32;3.22;;;18.90;99.90;;;;;;2094121;28;20048;-70
2023/07/23 00:57:48;;;;;;;4.78;3.40;;;18.90;99.90;;;;;;2091548;28;20033;-70
2023/07/23 00:58:48;;;;;;;4.88;4.07;;;18.90;99.90;;;;;;2091407;28;20024;-70
2023/07/23 00:59:49;;;;;;;5.57;4.03;;;18.90;99.90;;;;;;2091911;28;20063;-70
2023/07/23 01:00:50;;;;;;;4.35;3.55;;;18.90;99.90;;;;;;2091874;28;20504;-70
2023/07/23 01:01:51;;;;;;;3.75;2.88;;;18.90;99.90;;;;;;2092703;28;20032;-70
2023/07/23 01:02:51;;;;;;;5.88;3.45;;;18.90;99.90;;;;;;2091803;28;20043;-70
2023/07/23 01:03:52;;;;;;;4.15;3.58;;;18.90;99.90;;;;;;2093287;28;20241;-70
2023/07/23 01:04:54;;;;;;;6.32;3.67;;;18.90;99.90;;;;;;2094284;28;20335;-70
2023/07/23 01:06:01;;;;;;;7.13;3.67;;;18.80;99.90;;;;;;2092241;28;20057;-70
2023/07/23 01:07:05;;;;;;;6.10;3.97;;;18.90;99.90;;;;;;2094261;28;20078;-70
2023/07/23 01:08:07;;;;;;;4.43;3.47;;;18.80;99.90;;;;;;2093436;28;20025;-70
2023/07/23 01:09:08;;;;;;;5.80;3.90;;;18.80;99.90;;;;;;2094975;28;20020;-70
2023/07/23 01:10:09;;;;;;;4.93;3.60;;;18.80;99.90;;;;;;2092595;28;20495;-70
2023/07/23 01:11:11;;;;;;;5.13;3.38;;;18.80;99.90;;;;;;2092774;28;20078;-70
2023/07/23 01:12:14;;;;;;;8.13;3.80;;;18.80;99.90;;;;;;2094276;28;20039;-70
2023/07/23 01:13:15;;;;;;;4.50;3.78;;;18.80;99.90;;;;;;2093569;28;20024;-70
2023/07/23 01:14:16;;;;;;;5.03;3.28;;;18.80;99.90;;;;;;2093924;28;20447;-70
2023/07/23 01:15:17;;;;;;;5.35;3.58;;;18.80;99.90;;;;;;2093935;28;20111;-70
2023/07/23 01:16:19;;;;;;;4.07;3.50;;;18.80;99.90;;;;;;2092464;28;20475;-70
2023/07/23 01:17:19;;;;;;;9.50;4.25;;;18.80;99.90;;;;;;2092624;28;20032;-70
2023/07/23 01:18:21;;;;;;;4.63;3.25;;;18.80;99.90;;;;;;2091226;28;20465;-70
2023/07/23 01:19:26;;;;;;;4.47;3.63;;;18.80;99.90;;;;;;2093382;28;20032;-70
2023/07/23 01:20:26;;;;;;;6.50;3.78;;;18.70;99.90;;;;;;2093813;28;20040;-70
2023/07/23 01:21:27;;;;;;;5.65;3.63;;;18.80;99.90;;;;;;2091194;28;20032;-70
2023/07/23 01:22:28;;;;;;;4.50;3.13;;;18.70;99.90;;;;;;2093457;28;20114;-70
2023/07/23 01:23:28;;;;;;;5.03;3.53;;;18.70;99.90;;;;;;2092243;28;20029;-70
2023/07/23 01:24:29;;;;;;;7.68;3.90;;;18.70;99.90;;;;;;2093653;28;20516;-70
2023/07/23 01:25:29;;;;;;;5.93;3.67;;;18.80;99.90;;;;;;2093330;28;20023;-70
2023/07/23 01:26:30;;;;;;;3.80;3.45;;;18.80;99.90;;;;;;2092452;28;20396;-70
2023/07/23 01:27:31;;;;;;;4.25;3.67;;;18.80;99.90;;;;;;2092746;28;20108;-70
2023/07/23 01:28:31;;;;;;;4.68;3.63;;;18.70;99.90;;;;;;2092008;28;20013;-70
2023/07/23 01:29:32;;;;;;;7.35;3.58;;;18.70;99.90;;;;;;2092664;28;20048;-70
2023/07/23 01:30:32;;;;;;;4.45;3.45;;;18.70;99.90;;;;;;2092696;28;20029;-70
2023/07/23 01:31:33;;;;;;;5.10;3.88;;;18.70;99.90;;;;;;2092587;28;20389;-70
2023/07/23 01:32:35;;;;;;;5.13;3.70;;;18.80;99.90;;;;;;2091637;28;20134;-70
2023/07/23 01:33:35;;;;;;;7.30;3.83;;;18.70;99.90;;;;;;2092300;28;20050;-70
2023/07/23 01:34:36;;;;;;;4.00;3.60;;;18.70;99.90;;;;;;2091252;28;20063;-70
2023/07/23 01:35:37;;;;;;;3.60;3.30;;;18.70;99.90;;;;;;2091794;28;20406;-70
2023/07/23 01:36:39;;;;;;;5.35;3.80;;;18.70;99.90;;;;;;2092259;28;20017;-70
2023/07/23 01:37:41;;;;;;;4.65;3.47;;;18.70;99.90;;;;;;2092956;28;20020;-70
2023/07/23 01:38:41;;;;;;;6.57;3.83;;;18.70;99.90;;;;;;2093118;28;20155;-70
2023/07/23 01:39:43;;;;;;;5.72;3.80;;;18.70;99.90;;;;;;2093233;28;20017;-70
2023/07/23 01:40:44;;;;;;;6.38;4.03;;;18.70;99.90;;;;;;2091232;28;20024;-70
2023/07/23 01:41:45;;;;;;;5.10;3.85;;;18.70;99.90;;;;;;2092708;28;20061;-70
2023/07/23 01:42:45;;;;;;;3.53;3.20;;;18.60;99.90;;;;;;2091988;28;20032;-70
2023/07/23 01:43:46;;;;;;;5.57;4.00;;;18.60;99.90;;;;;;2092686;28;20602;-70
2023/07/23 01:44:46;;;;;;;4.93;3.70;;;18.60;99.90;;;;;;2090996;28;20021;-70
2023/07/23 01:45:47;;;;;;;7.60;4.28;;;18.60;99.90;;;;;;2091569;28;20025;-70
2023/07/23 01:46:47;;;;;;;6.43;3.95;;;18.60;99.90;;;;;;2093067;28;20067;-70
2023/07/23 01:47:48;;;;;;;6.90;3.55;;;18.60;99.90;;;;;;2093389;28;20477;-70
2023/07/23 01:48:49;;;;;;;5.97;4.07;;;18.60;99.90;;;;;;2093253;28;20075;-70
2023/07/23 01:49:49;;;;;;;6.47;3.95;;;18.60;99.90;;;;;;2093475;28;20039;-70
2023/07/23 01:50:50;;;;;;;4.10;3.58;;;18.60;99.90;;;;;;2092054;28;20025;-70
2023/07/23 01:51:50;;;;;;;5.15;3.65;;;18.60;99.90;;;;;;2091877;28;20548;-70
2023/07/23 01:52:51;;;;;;;6.95;3.72;;;18.60;99.90;;;;;;2091604;28;20068;-70
2023/07/23 01:53:52;;;;;;;4.85;3.90;;;18.60;99.90;;;;;;2092528;28;20048;-70
2023/07/23 01:54:52;;;;;;;3.92;3.58;;;18.60;99.90;;;;;;2090217;28;20473;-70
2023/07/23 01:55:53;;;;;;;4.75;3.55;;;18.50;99.90;;;;;;2092455;28;20029;-70
2023/07/23 01:56:56;;;;;;;6.72;4.35;;;18.60;99.90;;;;;;2093735;28;20031;-70
2023/07/23 01:57:56;;;;;;;4.43;4.03;;;18.50;99.90;;;;;;2092137;28;20062;-70
2023/07/23 01:58:57;;;;;;;5.10;4.07;;;18.50;99.90;;;;;;2091103;28;20055;-70
2023/07/23 01:59:57;;;;;;;8.02;4.60;;;18.50;99.90;;;;;;2092479;28;20024;-70
2023/07/23 02:01:00;;;;;;;7.18;4.00;;;18.50;99.90;;;;;;2090585;28;20033;-70
2023/07/23 02:02:00;;;;;;;5.20;4.00;;;18.50;99.90;;;;;;2093151;28;20032;-70
2023/07/23 02:03:01;;;;;;;6.15;4.28;;;18.50;99.90;;;;;;2091940;28;20039;-70
2023/07/23 02:04:02;;;;;;;6.57;3.88;;;18.50;99.90;;;;;;2092195;28;20028;-70
2023/07/23 02:05:03;;;;;;;5.03;4.20;;;18.50;99.90;;;;;;2092716;28;20052;-70
2023/07/23 02:06:03;;;;;;;8.43;4.63;;;18.40;99.90;;;;;;2093423;28;20035;-70
2023/07/23 02:07:04;;;;;;;4.32;3.80;;;18.50;99.90;;;;;;2086717;28;20057;-70
2023/07/23 02:08:05;;;;;;;5.20;3.72;;;18.50;99.90;;;;;;2094182;28;20031;-70
2023/07/23 02:09:05;;;;;;;5.07;4.55;;;18.50;99.90;;;;;;2092552;28;20035;-70
2023/07/23 02:10:13;;;;;;;5.25;4.45;;;18.50;99.90;;;;;;2093474;28;20039;-70
2023/07/23 02:11:13;;;;;;;9.48;4.47;;;18.50;99.90;;;;;;2094251;28;20044;-70
2023/07/23 02:12:14;;;;;;;6.40;4.13;;;18.50;99.90;;;;;;2091960;28;20028;-70
2023/07/23 02:13:14;;;;;;;4.60;3.60;;;18.50;99.90;;;;;;2093127;28;20064;-70
2023/07/23 02:14:15;;;;;;;6.18;4.25;;;18.50;99.90;;;;;;2091555;28;20412;-70
2023/07/23 02:15:18;;;;;;;7.03;4.70;;;18.50;99.90;;;;;;2091261;28;20029;-70
2023/07/23 02:16:20;;;;;;;4.88;4.10;;;18.50;99.90;;;;;;2092182;28;20056;-70
2023/07/23 02:17:20;;;;;;;5.43;4.43;;;18.60;99.90;;;;;;2091828;28;20021;-70
2023/07/23 02:18:21;;;;;;;4.70;4.15;;;18.60;99.90;;;;;;2092116;28;20021;-70
2023/07/23 02:19:22;;;;;;;4.90;3.90;;;18.60;99.90;;;;;;2094823;28;20031;-70
2023/07/23 02:20:22;;;;;;;8.55;4.82;;;18.60;99.90;;;;;;2092739;28;20025;-70
2023/07/23 02:21:23;;;;;;;4.40;4.00;;;18.60;99.90;;;;;;2092182;28;20458;-70
2023/07/23 02:22:23;;;;;;;8.15;4.47;;;18.60;99.90;;;;;;2091630;28;20074;-71
2023/07/23 02:23:24;;;;;;;6.30;4.18;;;18.60;99.90;;;;;;2094132;28;20029;-71
2023/07/23 02:24:25;;;;;;;5.82;4.63;;;18.60;99.90;;;;;;2091749;28;20027;-70
2023/07/23 02:25:25;;;;;;;6.38;4.85;;;18.60;99.90;;;;;;2093262;28;20032;-70
2023/07/23 02:26:26;;;;;;;4.43;4.03;;;18.60;99.90;;;;;;2092300;28;20033;-70
2023/07/23 02:27:26;;;;;;;4.68;4.13;;;18.60;99.90;;;;;;2093004;28;20063;-70
2023/07/23 02:28:27;;;;;;;5.05;3.88;;;18.70;99.90;;;;;;2095329;28;20024;-70
2023/07/23 02:29:27;;;;;;;6.55;4.53;;;18.70;99.90;;;;;;2094354;28;20028;-70
2023/07/23 02:30:28;;;;;;;6.35;4.13;;;18.70;99.90;;;;;;2092367;28;20019;-70
2023/07/23 02:31:28;;;;;;;4.25;3.78;;;18.70;99.90;;;;;;2091280;28;20028;-70
2023/07/23 02:32:29;;;;;;;5.00;4.50;;;18.70;99.90;;;;;;2090960;28;20069;-70
2023/07/23 02:33:29;;;;;;;4.68;4.18;;;18.70;99.90;;;;;;2090520;28;20021;-70
2023/07/23 02:34:30;;;;;;;5.30;4.43;;;18.70;99.90;;;;;;2093022;28;20342;-70
2023/07/23 02:35:38;;;;;;;4.80;4.05;;;18.70;99.90;;;;;;2091990;28;20031;-70
2023/07/23 02:36:39;;;;;;;4.30;3.75;;;18.70;99.90;;;;;;2092841;28;20025;-70
2023/07/23 02:37:39;;;;;;;5.82;4.40;;;18.70;99.90;;;;;;2091805;28;20025;-70
2023/07/23 02:38:40;;;;;;;5.78;3.55;;;18.70;99.90;;;;;;2093236;28;20515;-70
2023/07/23 02:39:40;;;;;;;6.70;4.40;;;18.70;99.90;;;;;;2094051;28;20079;-70
2023/07/23 02:40:41;;;;;;;6.57;4.20;;;18.70;99.90;;;;;;2090296;28;20021;-70
2023/07/23 02:41:41;;;;;;;6.25;4.18;;;18.70;99.90;;;;;;2092354;28;20037;-70
2023/07/23 02:42:42;;;;;;;4.93;3.78;;;18.70;99.90;;;;;;2092864;28;20025;-71
2023/07/23 02:43:42;;;;;;;4.97;4.05;;;18.70;99.90;;;;;;2092474;28;20103;-71
2023/07/23 02:44:43;;;;;;;4.88;4.28;;;18.70;99.90;;;;;;2091456;28;20017;-71
2023/07/23 02:45:43;;;;;;;6.18;4.43;;;18.70;99.90;;;;;;2092931;28;20087;-71
2023/07/23 02:46:44;;;;;;;5.22;3.95;;;18.80;99.90;;;;;;2092539;28;20108;-71
2023/07/23 02:47:45;;;;;;;4.68;4.18;;;18.70;99.90;;;;;;2092832;28;20025;-71
2023/07/23 02:48:45;;;;;;;12.10;4.18;;;18.80;99.90;;;;;;2091778;28;20029;-71
2023/07/23 02:49:46;;;;;;;6.75;4.05;;;18.80;99.90;;;;;;2093616;28;20090;-71
2023/07/23 02:50:46;;;;;;;4.70;4.22;;;18.80;99.90;;;;;;2089936;28;20056;-71
2023/07/23 02:51:47;;;;;;;6.95;4.50;;;18.80;99.90;;;;;;2091072;28;20056;-71
2023/07/23 02:52:47;;;;;;;5.68;4.05;;;18.80;99.90;;;;;;2091874;28;20033;-71
2023/07/23 02:53:49;;;;;;;6.45;4.10;;;18.80;99.90;;;;;;2091690;28;20031;-71
2023/07/23 02:54:49;;;;;;;4.45;4.05;;;18.80;99.90;;;;;;2091464;28;20028;-71
2023/07/23 02:55:50;;;;;;;6.53;4.22;;;18.80;99.90;;;;;;2092809;28;20024;-70
2023/07/23 02:56:50;;;;;;;4.13;3.75;;;18.90;99.90;;;;;;2091826;28;20056;-70
2023/07/23 02:57:51;;;;;;;5.97;4.20;;;18.90;99.90;;;;;;2092249;28;20481;-70
2023/07/23 02:58:52;;;;;;;4.10;3.70;;;18.80;99.90;;;;;;2091530;28;20044;-70
2023/07/23 02:59:52;;;;;;;4.82;4.18;;;18.80;99.90;;;;;;2091162;28;20401;-70
2023/07/23 03:00:56;;;;;;;4.18;3.78;;;18.90;99.90;;;;;;2091430;28;20087;-70
2023/07/23 03:01:56;;;;;;;4.88;4.38;;;18.90;99.90;;;;;;2091563;28;20075;-72
2023/07/23 03:02:57;;;;;;;4.22;3.67;;;18.90;99.90;;;;;;2092205;28;20024;-70
2023/07/23 03:03:57;;;;;;;5.80;4.40;;;18.90;99.90;;;;;;2091087;28;20052;-70
2023/07/23 03:04:58;;;;;;;4.90;3.70;;;18.90;99.90;;;;;;2091312;28;20017;-70
2023/07/23 03:05:58;;;;;;;4.30;3.88;;;18.90;99.90;;;;;;2090166;28;20562;-72
2023/07/23 03:06:59;;;;;;;8.02;4.65;;;18.90;99.90;;;;;;2090509;28;20027;-71
2023/07/23 03:07:59;;;;;;;4.82;3.90;;;18.90;99.90;;;;;;2092211;28;20048;-70
2023/07/23 03:09:00;;;;;;;4.65;4.18;;;18.90;99.90;;;;;;2091834;28;20502;-70
2023/07/23 03:10:01;;;;;;;4.53;4.13;;;18.90;99.90;;;;;;2089230;28;20013;-70
2023/07/23 03:11:04;;;;;;;5.55;4.22;;;19.00;99.90;;;;;;2092505;28;20477;-70
2023/07/23 03:12:04;;;;;;;3.83;3.50;;;19.00;99.90;;;;;;2091165;28;20117;-70
2023/07/23 03:13:05;;;;;;;5.80;4.32;;;19.00;99.90;;;;;;2090070;28;20036;-70
2023/07/23 03:14:05;;;;;;;5.38;3.97;;;19.00;99.90;;;;;;2091237;28;20031;-70
2023/07/23 03:15:07;;;;;;;4.40;3.90;;;19.00;99.90;;;;;;2090815;28;20506;-70
2023/07/23 03:16:07;;;;;;;4.88;3.97;;;19.00;99.90;;;;;;2092448;28;20476;-70
2023/07/23 03:17:08;;;;;;;4.72;4.32;;;19.00;99.90;;;;;;2091856;28;20457;-70
2023/07/23 03:18:08;;;;;;;6.28;3.90;;;19.00;99.90;;;;;;2092103;28;20028;-72
2023/07/23 03:19:09;;;;;;;6.88;3.88;;;19.00;99.90;;;;;;2091372;28;20029;-70
2023/07/23 03:20:10;;;;;;;6.68;3.92;;;19.00;99.90;;;;;;2091938;28;20069;-70
2023/07/23 03:21:11;;;;;;;7.05;4.07;;;19.00;99.90;;;;;;2093167;28;20028;-70
2023/07/23 03:22:11;;;;;;;5.55;4.35;;;19.00;99.90;;;;;;2092779;28;20024;-70
2023/07/23 03:23:12;;;;;;;4.40;4.00;;;19.10;99.90;;;;;;2089722;28;20017;-70
2023/07/23 03:24:12;;;;;;;7.35;4.28;;;19.00;99.90;;;;;;2092213;28;20029;-70
2023/07/23 03:25:14;;;;;;;5.03;4.05;;;19.00;99.90;;;;;;2090095;28;20102;-70
2023/07/23 03:26:15;;;;;;;6.30;3.83;;;19.00;99.90;;;;;;2090741;28;20476;-70
2023/07/23 03:27:15;;;;;;;5.10;3.70;;;19.00;99.90;;;;;;2091639;28;20021;-70
2023/07/23 03:28:16;;;;;;;5.57;4.20;;;19.10;99.90;;;;;;2091577;28;20032;-70
2023/07/23 03:29:16;;;;;;;4.90;4.13;;;19.10;99.90;;;;;;2092233;28;20013;-70
2023/07/23 03:30:17;;;;;;;6.47;4.35;;;19.10;99.90;;;;;;2092310;28;20017;-70
2023/07/23 03:31:17;;;;;;;4.75;4.32;;;19.10;99.90;;;;;;2092092;28;20062;-70
2023/07/23 03:32:18;;;;;;;4.35;3.95;;;19.10;99.90;;;;;;2089890;28;20061;-70
2023/07/23 03:33:18;;;;;;;6.63;4.38;;;19.10;99.90;;;;;;2091884;28;20028;-70
2023/07/23 03:34:19;;;;;;;4.18;3.78;;;19.10;99.90;;;;;;2090867;28;20052;-70
2023/07/23 03:35:20;;;;;;;5.40;4.53;;;19.10;99.90;;;;;;2091185;28;20074;-70
2023/07/23 03:36:21;;;;;;;4.43;3.85;;;19.10;99.90;;;;;;2091001;28;20025;-70
2023/07/23 03:37:21;;;;;;;6.32;4.60;;;19.10;99.90;;;;;;2092456;28;20027;-70
2023/07/23 03:38:22;;;;;;;5.25;4.25;;;19.10;99.90;;;;;;2092439;28;20064;-70
2023/07/23 03:39:22;;;;;;;4.60;4.18;;;19.10;99.90;;;;;;2091038;28;20025;-70
2023/07/23 03:40:23;;;;;;;5.25;4.05;;;19.20;99.90;;;;;;2090263;28;20020;-70
2023/07/23 03:41:24;;;;;;;5.88;4.35;;;19.20;99.90;;;;;;2089340;28;20017;-70
2023/07/23 03:42:25;;;;;;;4.50;3.92;;;19.20;99.90;;;;;;2093177;28;20016;-70
2023/07/23 03:43:25;;;;;;;4.53;3.97;;;19.20;99.90;;;;;;2090620;28;20024;-70
2023/07/23 03:44:26;;;;;;;4.68;3.63;;;19.20;99.90;;;;;;2091587;28;20622;-70
2023/07/23 03:45:26;;;;;;;4.07;3.60;;;19.20;99.90;;;;;;2092510;28;20020;-70
2023/07/23 03:46:27;;;;;;;4.32;3.92;;;19.20;99.90;;;;;;2092654;28;20163;-70
2023/07/23 03:47:27;;;;;;;5.57;3.97;;;19.20;99.90;;;;;;2092663;28;20441;-70
2023/07/23 03:48:28;;;;;;;5.55;3.90;;;19.20;99.90;;;;;;2092444;28;20024;-70
2023/07/23 03:49:28;;;;;;;4.50;4.05;;;19.20;99.90;;;;;;2091895;28;20023;-70
2023/07/23 03:50:29;;;;;;;6.70;4.30;;;19.20;99.90;;;;;;2092563;28;20427;-70
2023/07/23 03:51:29;;;;;;;6.43;4.15;;;19.20;99.90;;;;;;2090318;28;20053;-70
2023/07/23 03:52:30;;;;;;;4.53;4.05;;;19.20;99.90;;;;;;2091437;28;20055;-70
2023/07/23 03:53:30;;;;;;;5.18;4.13;;;19.20;99.90;;;;;;2092372;28;20028;-71
2023/07/23 03:54:32;;;;;;;4.45;4.05;;;19.20;99.90;;;;;;2093193;28;20036;-71
2023/07/23 03:55:33;;;;;;;4.95;3.72;;;19.20;99.90;;;;;;2091718;28;20496;-71
2023/07/23 03:56:33;;;;;;;4.65;4.15;;;19.20;99.90;;;;;;2089781;28;20392;-71
2023/07/23 03:57:34;;;;;;;4.63;4.22;;;19.20;99.90;;;;;;2091463;28;20723;-71
2023/07/23 03:58:34;;;;;;;4.95;4.40;;;19.20;99.90;;;;;;2090810;28;20016;-71
2023/07/23 03:59:39;;;;;;;5.25;3.85;;;19.20;99.90;;;;;;2092626;28;20044;-71
2023/07/23 04:00:40;;;;;;;7.68;4.22;;;19.20;99.90;;;;;;2092025;28;20469;-71
2023/07/23 04:01:41;;;;;;;5.65;4.05;;;19.20;99.90;;;;;;2092978;28;20116;-71
2023/07/23 04:02:42;;;;;;;5.15;4.30;;;19.20;99.90;;;;;;2091305;28;20025;-71
2023/07/23 04:03:42;;;;;;;6.22;3.92;;;19.30;99.90;;;;;;2090437;28;20044;-71
2023/07/23 04:04:43;;;;;;;5.88;4.20;;;19.30;99.90;;;;;;2089672;28;20017;-71
2023/07/23 04:05:43;;;;;;;5.10;3.80;;;19.30;99.90;;;;;;2091431;28;20040;-71
2023/07/23 04:06:44;;;;;;;19.00;4.13;;;19.30;99.90;;;;;;2091292;28;20029;-71
2023/07/23 04:07:44;;;;;;;6.57;4.03;;;19.30;99.90;;;;;;2089983;28;20025;-71
2023/07/23 04:08:45;;;;;;;5.22;3.78;;;19.30;99.90;;;;;;2089496;28;20056;-71
2023/07/23 04:09:46;;;;;;;3.63;3.33;;;19.30;99.90;;;;;;2090873;28;20404;-71
2023/07/23 04:10:46;;;;;;;5.63;3.83;;;19.30;99.90;;;;;;2092194;28;20028;-71
2023/07/23 04:11:47;;;;;;;4.38;3.97;;;19.30;99.90;;;;;;2094138;28;20147;-71
2023/07/23 04:12:47;;;;;;;4.05;3.72;;;19.40;99.90;;;;;;2091489;28;20044;-71
2023/07/23 04:13:49;;;;;;;6.03;4.10;;;19.40;99.90;;;;;;2090842;28;20111;-71
2023/07/23 04:14:50;;;;;;;5.72;3.75;;;19.40;99.90;;;;;;2095299;28;20052;-71
2023/07/23 04:15:51;;;;;;;4.25;3.38;;;19.40;99.90;;;;;;2094777;28;20041;-71
2023/07/23 04:16:52;;;;;;;4.72;4.13;;;19.40;99.90;;;;;;2090734;28;20035;-71
2023/07/23 04:17:53;;;;;;;4.97;4.32;;;19.40;99.90;;;;;;2091536;28;20055;-71
2023/07/23 04:18:53;;;;;;;4.43;4.00;;;19.40;99.90;;;;;;2090341;28;20029;-71
2023/07/23 04:19:54;;;;;;;5.07;3.97;;;19.40;99.90;;;;;;2091989;28;20033;-71
2023/07/23 04:20:55;;;;;;;5.32;4.18;;;19.40;99.90;;;;;;2091246;28;20055;-71
2023/07/23 04:21:56;;;;;;;4.28;3.97;;;19.40;99.90;;;;;;2091272;28;20028;-71
2023/07/23 04:22:56;;;;;;;7.97;4.35;;;19.40;99.90;;;;;;2093055;28;20025;-71
2023/07/23 04:23:57;;;;;;;5.35;4.35;;;19.40;99.90;;;;;;2093181;28;20166;-71
2023/07/23 04:24:58;;;;;;;3.88;3.47;;;19.50;99.90;;;;;;2092140;28;20029;-71
2023/07/23 04:25:58;;;;;;;4.43;4.03;;;19.40;99.90;;;;;;2090674;28;20507;-71
2023/07/23 04:26:59;;;;;;;3.58;3.25;;;19.50;99.90;;;;;;2092592;28;20063;-71
2023/07/23 04:27:59;;;;;;;4.28;3.85;;;19.50;99.90;;;;;;2090879;28;20027;-71
2023/07/23 04:29:00;;;;;;;5.82;4.13;;;19.50;99.90;;;;;;2092433;28;20032;-71
2023/07/23 04:30:01;;;;;;;4.22;3.65;;;19.50;99.90;;;;;;2094866;28;20024;-71
2023/07/23 04:31:01;;;;;;;4.50;3.90;;;19.50;99.90;;;;;;2096863;28;20082;-71
2023/07/23 04:32:02;;;;;;;4.75;4.10;;;19.50;99.90;;;;;;2094039;28;20039;-71
2023/07/23 04:33:03;;;;;;;4.03;3.70;;;19.50;99.90;;;;;;2093466;28;20610;-71
2023/07/23 04:34:03;;;;;;;3.88;3.58;;;19.60;99.90;;;;;;2093309;28;20032;-71
2023/07/23 04:35:04;;;;;;;3.85;3.30;;;19.60;99.90;;;;;;2093382;28;20032;-71
2023/07/23 04:36:07;;;;;;;6.85;3.63;;;19.60;99.90;;;;;;2091798;28;20638;-71
2023/07/23 04:37:09;;;;;;;3.75;3.45;;;19.60;99.90;;;;;;2093557;28;20125;-71
2023/07/23 04:38:09;;;;;;;5.47;3.90;;;19.60;99.90;;;;;;2092694;28;20607;-71
2023/07/23 04:39:10;;;;;;;4.10;3.70;;;19.60;99.90;;;;;;2092720;28;20373;-71
2023/07/23 04:40:11;;;;;;;4.47;4.07;;;19.60;99.90;;;;;;2093254;28;20150;-71
2023/07/23 04:41:12;;;;;;;3.92;3.50;;;19.60;99.90;;;;;;2093271;28;20566;-71
2023/07/23 04:42:13;;;;;;;3.60;3.30;;;19.60;99.90;;;;;;2093355;28;20136;-71
2023/07/23 04:43:13;;;;;;;3.92;3.53;;;19.60;99.90;;;;;;2091299;28;20028;-71
2023/07/23 04:44:14;;;;;;;4.50;3.17;;;19.60;99.90;;;;;;2092806;28;20024;-71
2023/07/23 04:45:15;;;;;;;6.55;3.45;;;19.70;99.90;;;;;;2091555;28;20059;-71
2023/07/23 04:46:15;;;;;;;3.97;3.42;;;19.70;99.90;;;;;;2092918;28;20100;-71
2023/07/23 04:47:16;;;;;;;5.72;3.42;;;19.70;99.90;;;;;;2092030;28;20029;-71
2023/07/23 04:48:16;;;;;;;3.92;3.53;;;19.70;99.90;;;;;;2092698;28;20569;-71
2023/07/23 04:49:17;;;;;;;4.15;3.72;;;19.70;99.90;;;;;;2094694;28;20029;-71
2023/07/23 04:50:17;;;;;;;4.45;3.85;;;19.80;99.90;;;;;;2092715;28;20032;-71
2023/07/23 04:51:18;;;;;;;4.32;3.92;;;19.70;99.90;;;;;;2093653;28;20450;-71
2023/07/23 04:52:18;;;;;;;6.22;3.95;;;19.80;99.90;;;;;;2091909;28;20024;-71
2023/07/23 04:53:20;;;;;;;4.00;3.58;;;19.80;99.90;;;;;;2092965;28;20029;-71
2023/07/23 04:54:20;;;;;;;6.20;3.58;;;19.80;99.90;;;;;;2092084;28;20016;-72
2023/07/23 04:55:21;;;;;;;5.90;3.67;;;19.80;99.90;;;;;;2092865;28;20029;-71
2023/07/23 04:56:22;;;;;;;4.95;3.28;;;19.80;99.90;;;;;;2091314;28;20029;-71
2023/07/23 04:57:22;;;;;;;5.10;3.70;;;19.80;99.90;;;;;;2098784;28;20104;-71
2023/07/23 04:58:24;;;;;;;5.70;3.97;;;19.80;99.90;;;;;;2096095;28;20024;-71
2023/07/23 04:59:24;;;;;;;7.03;3.80;;;19.80;99.90;;;;;;2093282;28;20033;-71
2023/07/23 05:00:26;;;;;;;3.75;3.45;;;19.90;99.90;;;;;;2093081;28;20048;-71
2023/07/23 05:01:26;;;;;;;5.63;3.80;;;19.90;99.90;;;;;;2092280;28;20112;-71
2023/07/23 05:02:27;;;;;;;4.13;3.60;;;19.90;99.90;;;;;;2094517;28;20484;-71
2023/07/23 05:03:27;;;;;;;6.22;3.42;;;19.90;99.90;;;;;;2091199;28;20025;-70
2023/07/23 05:04:28;;;;;;;5.88;3.35;;;19.90;99.90;;;;;;2090040;28;20506;-71
2023/07/23 05:05:28;;;;;;;4.22;3.42;;;20.00;99.90;;;;;;2092865;28;20017;-71
2023/07/23 05:06:29;;;;;;;4.47;3.97;;;19.90;99.90;;;;;;2092861;28;20035;-71
2023/07/23 05:07:29;;;;;;;4.47;3.47;;;20.00;99.90;;;;;;2091946;28;20473;-70
2023/07/23 05:08:31;;;;;;;3.72;3.35;;;20.00;99.90;;;;;;2093616;28;20025;-71
2023/07/23 05:09:31;;;;;;;5.20;3.20;;;20.00;99.90;;;;;;2092154;28;20082;-71
2023/07/23 05:10:32;;;;;;;3.90;3.60;;;20.00;99.90;;;;;;2092388;28;20103;-71
2023/07/23 05:11:32;;;;;;;5.63;3.15;;;20.00;99.90;;;;;;2092235;28;20025;-71
2023/07/23 05:12:33;;;;;;;4.00;3.60;;;20.00;99.90;;;;;;2092850;28;20492;-71
2023/07/23 05:13:35;;;;;;;4.28;3.28;;;20.10;99.90;;;;;;2092440;28;20036;-71
2023/07/23 05:14:35;;;;;;;8.13;3.42;;;20.10;99.90;;;;;;2091441;28;20393;-71
2023/07/23 05:15:36;;;;;;;6.80;3.67;;;20.10;99.90;;;;;;2093745;28;20070;-71
2023/07/23 05:16:36;;;;;;;7.68;3.70;;;20.10;99.90;;;;;;2091831;28;20427;-71